Country Club Hills, Missouri
Current Conditions -  °F | °C
As of 3:51 PM on Saturday 25 Oct 2014 (Local Time) from KSTL Reporting Station
Few Clouds Few Clouds  
Wind Chill: 82°   Ceiling: Unl
Heat Index: 82°   Visibility: 10mi
Dew Point: 55°   Wind: 8mph
Humidity: 39%   Direction: 290°WNW
Pressure: 30.01"   Gusts: NA
Location:  38.7423°N, 90.2608°W
Report Text: KSTL 252051Z 29007KT 10SM FEW250 28/13 A3001 RMK AO2 SLP155 T02780128 56007
Loading
Personal Weather Stations






























Interactive Weather Map New forecast layout! Learn more

10-Day Weather Forecast

Advertisements
Track Severe Weather on mobile